Danville Regional Airport Danville US
ICAO: KDAN
IATA: DAN
Category: Medium
Scheduled Services: No

Elevation: 571 ft
TransAlt. 18000 ft.

Airport Communications:
ASOS:128.125
WASHINGTON CNTR:124.05
LEESBURG RDO:122.2
CTAF/UNICOM:123.05

KDAN Zoom In..

Runways:

(A) RW 02 length 6500 ft width 150 ft
ILS 110.70 / hdg 25

(B) RW 13 length 4020 ft width 100 ft
---- / hdg 134

(C) RW 20 length 6500 ft width 150 ft
---- / hdg 205

(D) RW 31 length 4020 ft width 100 ft
---- / hdg 314

Location; KDAN
Day. 26 / Time. 13.37 Zulu
* Altimeter: 29.98
* Temperature: 24° c. 75.2°f.
* Wind from: 230° Speed 08 kn.
Dewpoint: 22° c.
Visibility: 10 Statute Miles.
Clouds: Broken 1600 ft.
Clouds: Broken 2100 ft.

KDAN 261337Z AUTO 23008KT 10SM BKN016 BKN021 24/22 A2998 RMK AO2 T02390217


Wind From 230°
Speed 08 kn.

 
 
jpsmedia.com for Web Design SOUNDCLOUD worldairports.se 2018   terms of use